sensor_id;sensor_type;location;lat;lon;timestamp;pressure;altitude;pressure_sealevel;temperature;humidity
54459;BME280;40368;49.350;8.152;2022-11-20T00:01:27;997.4;;;10.1;59.8
54459;BME280;40368;49.350;8.152;2022-11-20T00:05:10;997.4;;;10.12;59.71
54459;BME280;40368;49.350;8.152;2022-11-20T00:10:14;997.4;;;10.13;59.95
54459;BME280;40368;49.350;8.152;2022-11-20T00:15:19;997.4;;;10.13;60.02
54459;BME280;40368;49.350;8.152;2022-11-20T00:20:16;997.4;;;10.12;59.82
54459;BME280;40368;49.350;8.152;2022-11-20T00:25:12;997.5;;;10.1;59.84
54459;BME280;40368;49.350;8.152;2022-11-20T00:30:17;997.4;;;10.1;59.98
54459;BME280;40368;49.350;8.152;2022-11-20T00:32:53;997.4;;;10.1;59.95
54459;BME280;40368;49.350;8.152;2022-11-20T00:35:22;997.4;;;10.13;59.95
54459;BME280;40368;49.350;8.152;2022-11-20T00:39:12;997.3;;;10.14;59.97
54459;BME280;40368;49.350;8.152;2022-11-20T00:41:40;997.3;;;10.13;60
54459;BME280;40368;49.350;8.152;2022-11-20T00:44:09;997.3;;;10.13;59.84
54459;BME280;40368;49.350;8.152;2022-11-20T00:49:13;997.4;;;10.14;59.96
54459;BME280;40368;49.350;8.152;2022-11-20T00:50:28;997.4;;;10.1;59.85
54459;BME280;40368;49.350;8.152;2022-11-20T00:52:56;997.4;;;10.09;59.83
54459;BME280;40368;49.350;8.152;2022-11-20T00:55:24;997.4;;;10.1;60.19
54459;BME280;40368;49.350;8.152;2022-11-20T00:57:52;997.4;;;10.09;60.18
54459;BME280;40368;49.350;8.152;2022-11-20T01:01:43;997.5;;;10.09;60.23
54459;BME280;40368;49.350;8.152;2022-11-20T01:04:11;997.4;;;10.1;60.2
54459;BME280;40368;49.350;8.152;2022-11-20T01:08:02;997.5;;;10.1;60.37
54459;BME280;40368;49.350;8.152;2022-11-20T01:10:30;997.4;;;10.1;60.32
54459;BME280;40368;49.350;8.152;2022-11-20T01:12:58;997.4;;;10.09;60.46
54459;BME280;40368;49.350;8.152;2022-11-20T01:15:27;997.4;;;10.09;60.68
54459;BME280;40368;49.350;8.152;2022-11-20T01:17:55;997.3;;;10.09;60.48
54459;BME280;40368;49.350;8.152;2022-11-20T01:19:10;997.3;;;10.1;60.33
54459;BME280;40368;49.350;8.152;2022-11-20T01:21:47;997.4;;;10.09;60.46
54459;BME280;40368;49.350;8.152;2022-11-20T01:24:15;997.3;;;10.08;60.47
54459;BME280;40368;49.350;8.152;2022-11-20T01:26:43;997.3;;;10.06;59.95
54459;BME280;40368;49.350;8.152;2022-11-20T01:29:12;997.3;;;10.05;60.59
54459;BME280;40368;49.350;8.152;2022-11-20T01:31:39;997.3;;;10.05;60.59
54459;BME280;40368;49.350;8.152;2022-11-20T01:34:09;997.3;;;10.07;60.55
54459;BME280;40368;49.350;8.152;2022-11-20T01:36:36;997.3;;;10.08;60.52
54459;BME280;40368;49.350;8.152;2022-11-20T01:41:32;997.3;;;10.06;60.48
54459;BME280;40368;49.350;8.152;2022-11-20T01:44:00;997.3;;;10.08;60.37
54459;BME280;40368;49.350;8.152;2022-11-20T01:46:28;997.3;;;10.08;60.42
54459;BME280;40368;49.350;8.152;2022-11-20T01:50:20;997.2;;;10.07;60.46
54459;BME280;40368;49.350;8.152;2022-11-20T01:52:56;997.3;;;10.05;60.35
54459;BME280;40368;49.350;8.152;2022-11-20T01:55:24;997.2;;;10.04;60.5
54459;BME280;40368;49.350;8.152;2022-11-20T01:59:15;997.2;;;10.04;60.46
54459;BME280;40368;49.350;8.152;2022-11-20T02:03:05;997.2;;;10.04;60.43
54459;BME280;40368;49.350;8.152;2022-11-20T02:05:34;997.2;;;10.06;60.5
54459;BME280;40368;49.350;8.152;2022-11-20T02:09:15;997.2;;;10.06;60.59
54459;BME280;40368;49.350;8.152;2022-11-20T02:10:30;997.2;;;10.07;60.26
54459;BME280;40368;49.350;8.152;2022-11-20T02:12:58;997.2;;;10.06;60.44
54459;BME280;40368;49.350;8.152;2022-11-20T02:15:26;997.2;;;10.04;60.59
54459;BME280;40368;49.350;8.152;2022-11-20T02:19:09;997.2;;;10.04;60.51
54459;BME280;40368;49.350;8.152;2022-11-20T02:20:22;997.2;;;10.03;60.31
54459;BME280;40368;49.350;8.152;2022-11-20T02:22:53;997.2;;;10.03;60.46
54459;BME280;40368;49.350;8.152;2022-11-20T02:25:19;997.1;;;10.03;60.56
54459;BME280;40368;49.350;8.152;2022-11-20T02:29:10;997.1;;;10.05;60.18
54459;BME280;40368;49.350;8.152;2022-11-20T02:34:06;997;;;10.01;60.4
54459;BME280;40368;49.350;8.152;2022-11-20T02:40:25;997;;;9.99;60.35
54459;BME280;40368;49.350;8.152;2022-11-20T02:45:13;997;;;10;60.33
54459;BME280;40368;49.350;8.152;2022-11-20T02:50:18;997;;;10;60.25
54459;BME280;40368;49.350;8.152;2022-11-20T02:54:17;997;;;9.99;60.42
54459;BME280;40368;49.350;8.152;2022-11-20T02:59:13;997;;;10;60.46
54459;BME280;40368;49.350;8.152;2022-11-20T03:04:26;997;;;10.02;60.49
54459;BME280;40368;49.350;8.152;2022-11-20T03:13:22;997;;;10.01;60.82
54459;BME280;40368;49.350;8.152;2022-11-20T03:17:12;997;;;10.03;60.76
54459;BME280;40368;49.350;8.152;2022-11-20T03:22:25;997;;;10.02;60.45
54459;BME280;40368;49.350;8.152;2022-11-20T03:31:22;996.9;;;9.99;60.88
54459;BME280;40368;49.350;8.152;2022-11-20T03:35:19;996.9;;;9.97;60.89
54459;BME280;40368;49.350;8.152;2022-11-20T03:40:24;996.8;;;9.96;60.69
54459;BME280;40368;49.350;8.152;2022-11-20T03:44:15;996.9;;;9.92;60.61
54459;BME280;40368;49.350;8.152;2022-11-20T03:53:18;996.8;;;9.93;60.25
54459;BME280;40368;49.350;8.152;2022-11-20T03:58:15;996.7;;;9.89;60.26
54459;BME280;40368;49.350;8.152;2022-11-20T04:02:05;996.7;;;9.89;60.49
54459;BME280;40368;49.350;8.152;2022-11-20T04:07:10;996.7;;;9.85;60.58
54459;BME280;40368;49.350;8.152;2022-11-20T04:12:15;996.8;;;9.88;60.78
54459;BME280;40368;49.350;8.152;2022-11-20T04:17:28;996.8;;;9.97;61.07
54459;BME280;40368;49.350;8.152;2022-11-20T04:21:18;996.9;;;10.01;60.67
54459;BME280;40368;49.350;8.152;2022-11-20T04:25:09;996.8;;;10.01;61.06
54459;BME280;40368;49.350;8.152;2022-11-20T04:30:14;996.7;;;10.12;60.79
54459;BME280;40368;49.350;8.152;2022-11-20T04:35:18;996.7;;;10.14;60.73
54459;BME280;40368;49.350;8.152;2022-11-20T04:40:15;996.7;;;10.14;60.6
54459;BME280;40368;49.350;8.152;2022-11-20T04:44:14;996.6;;;10.09;60.87
54459;BME280;40368;49.350;8.152;2022-11-20T04:49:10;996.5;;;10.04;60.8
54459;BME280;40368;49.350;8.152;2022-11-20T04:54:07;996.6;;;10.02;60.67
54459;BME280;40368;49.350;8.152;2022-11-20T05:05:22;996.6;;;10.01;60.95
54459;BME280;40368;49.350;8.152;2022-11-20T05:07:58;996.6;;;9.99;61.17
54459;BME280;40368;49.350;8.152;2022-11-20T05:09:13;996.4;;;9.89;60.65
54459;BME280;40368;49.350;8.152;2022-11-20T05:11:49;996.5;;;9.99;61.12
54459;BME280;40368;49.350;8.152;2022-11-20T05:14:17;996.5;;;10.02;61.23
54459;BME280;40368;49.350;8.152;2022-11-20T05:16:46;996.5;;;10.02;61.14
54459;BME280;40368;49.350;8.152;2022-11-20T05:19:14;996.5;;;10.05;60.99
54459;BME280;40368;49.350;8.152;2022-11-20T05:21:42;996.5;;;10.1;60.95
54459;BME280;40368;49.350;8.152;2022-11-20T05:25:08;996.5;;;10.14;60.72
54459;BME280;40368;49.350;8.152;2022-11-20T05:27:36;996.5;;;10.18;60.66
54459;BME280;40368;49.350;8.152;2022-11-20T05:31:19;996.5;;;10.17;60.44
54459;BME280;40368;49.350;8.152;2022-11-20T05:32:33;996.5;;;10.16;60.92
54459;BME280;40368;49.350;8.152;2022-11-20T05:36:24;996.4;;;10.2;60.82
54459;BME280;40368;49.350;8.152;2022-11-20T05:46:18;996.4;;;10.12;61.23
54459;BME280;40368;49.350;8.152;2022-11-20T05:51:21;996.4;;;10.08;61.32
54459;BME280;40368;49.350;8.152;2022-11-20T05:55:12;996.3;;;10.06;61.2
54459;BME280;40368;49.350;8.152;2022-11-20T06:04:07;996.4;;;10.05;61.55
54459;BME280;40368;49.350;8.152;2022-11-20T06:10:18;996.3;;;10.03;61.62
54459;BME280;40368;49.350;8.152;2022-11-20T06:15:14;996.3;;;10.03;61.8
54459;BME280;40368;49.350;8.152;2022-11-20T06:25:16;996.4;;;10.06;61.65
54459;BME280;40368;49.350;8.152;2022-11-20T06:27:44;996.4;;;10.09;61.29
54459;BME280;40368;49.350;8.152;2022-11-20T06:31:26;996.3;;;10.12;61.77
54459;BME280;40368;49.350;8.152;2022-11-20T06:32:40;996.4;;;10.18;61.7
54459;BME280;40368;49.350;8.152;2022-11-20T06:35:09;996.3;;;10.22;61.33
54459;BME280;40368;49.350;8.152;2022-11-20T06:37:37;996.3;;;10.25;60.8
54459;BME280;40368;49.350;8.152;2022-11-20T06:40:06;996.3;;;10.22;61.14
54459;BME280;40368;49.350;8.152;2022-11-20T06:42:33;996.4;;;10.22;61.41
54459;BME280;40368;49.350;8.152;2022-11-20T06:45:02;996.3;;;10.25;61.4
54459;BME280;40368;49.350;8.152;2022-11-20T06:47:30;996.4;;;10.26;61.34
54459;BME280;40368;49.350;8.152;2022-11-20T06:49:58;996.4;;;10.25;61.21
54459;BME280;40368;49.350;8.152;2022-11-20T06:51:13;996.2;;;10.02;60.74
54459;BME280;40368;49.350;8.152;2022-11-20T06:56:25;996.4;;;9.83;62.22
54459;BME280;40368;49.350;8.152;2022-11-20T07:05:12;996.1;;;9.81;62.08
54459;BME280;40368;49.350;8.152;2022-11-20T07:15:06;996.5;;;10.04;62.1
54459;BME280;40368;49.350;8.152;2022-11-20T07:21:16;996.5;;;10.04;62.04
54459;BME280;40368;49.350;8.152;2022-11-20T07:27:35;996.5;;;10.02;62.2
54459;BME280;40368;49.350;8.152;2022-11-20T07:30:12;996.6;;;10.05;62.19
54459;BME280;40368;49.350;8.152;2022-11-20T07:34:02;996.6;;;10.09;62.22
54459;BME280;40368;49.350;8.152;2022-11-20T07:37:28;996.5;;;10.14;62.28
54459;BME280;40368;49.350;8.152;2022-11-20T07:41:11;996.5;;;10.18;62.54
54459;BME280;40368;49.350;8.152;2022-11-20T07:42:25;996.5;;;10.22;62.32
54459;BME280;40368;49.350;8.152;2022-11-20T07:45:01;996.5;;;10.26;62.29
54459;BME280;40368;49.350;8.152;2022-11-20T07:47:34;996.5;;;10.3;62.03
54459;BME280;40368;49.350;8.152;2022-11-20T07:51:20;996.4;;;10.33;62.17
54459;BME280;40368;49.350;8.152;2022-11-20T07:53:50;996.5;;;10.34;62.3
54459;BME280;40368;49.350;8.152;2022-11-20T07:56:17;996.5;;;10.38;62.17
54459;BME280;40368;49.350;8.152;2022-11-20T07:58:45;996.5;;;10.36;62.31
54459;BME280;40368;49.350;8.152;2022-11-20T08:02:36;996.6;;;10.37;62.36
54459;BME280;40368;49.350;8.152;2022-11-20T08:05:04;996.6;;;10.38;62.51
54459;BME280;40368;49.350;8.152;2022-11-20T08:07:34;996.6;;;10.39;62.54
54459;BME280;40368;49.350;8.152;2022-11-20T08:11:23;996.7;;;10.4;62.51
54459;BME280;40368;49.350;8.152;2022-11-20T08:13:51;996.6;;;10.42;62.61
54459;BME280;40368;49.350;8.152;2022-11-20T08:17:41;996.7;;;10.44;62.66
54459;BME280;40368;49.350;8.152;2022-11-20T08:21:32;996.7;;;10.43;62.76
54459;BME280;40368;49.350;8.152;2022-11-20T08:22:46;996.7;;;10.43;63.1
54459;BME280;40368;49.350;8.152;2022-11-20T08:25:14;996.8;;;10.43;62.94
54459;BME280;40368;49.350;8.152;2022-11-20T08:27:43;996.8;;;10.43;63
54459;BME280;40368;49.350;8.152;2022-11-20T08:31:26;996.8;;;10.46;62.95
54459;BME280;40368;49.350;8.152;2022-11-20T08:34:51;996.8;;;10.51;63.1
54459;BME280;40368;49.350;8.152;2022-11-20T08:37:19;996.9;;;10.52;63.46
54459;BME280;40368;49.350;8.152;2022-11-20T08:39:48;996.9;;;10.52;63.53
54459;BME280;40368;49.350;8.152;2022-11-20T08:42:16;996.9;;;10.49;63.44
54459;BME280;40368;49.350;8.152;2022-11-20T08:51:11;997;;;10.51;64.43
54459;BME280;40368;49.350;8.152;2022-11-20T08:56:16;997;;;10.57;63.96
54459;BME280;40368;49.350;8.152;2022-11-20T09:01:22;997;;;10.63;64.07
54459;BME280;40368;49.350;8.152;2022-11-20T09:15:12;996.5;;;10.58;64.11
54459;BME280;40368;49.350;8.152;2022-11-20T09:25:14;997.1;;;11.22;63.17
54459;BME280;40368;49.350;8.152;2022-11-20T09:34:01;997.1;;;11.3;63.36
54459;BME280;40368;49.350;8.152;2022-11-20T09:40:20;997.1;;;11.29;63.13
54459;BME280;40368;49.350;8.152;2022-11-20T09:44:13;997.1;;;11.29;62.99
54459;BME280;40368;49.350;8.152;2022-11-20T09:49:13;997.3;;;11.28;63.49
54459;BME280;40368;49.350;8.152;2022-11-20T09:54:14;997.2;;;11.14;63.95
54459;BME280;40368;49.350;8.152;2022-11-20T09:59:22;997.2;;;11.15;63.95
54459;BME280;40368;49.350;8.152;2022-11-20T10:04:14;996.7;;;10.69;63.91
54459;BME280;40368;49.350;8.152;2022-11-20T10:09:14;997.3;;;11.01;64.09
54459;BME280;40368;49.350;8.152;2022-11-20T10:15:38;997.3;;;11.15;63.47
54459;BME280;40368;49.350;8.152;2022-11-20T10:18:09;997.3;;;11.16;64.02
54459;BME280;40368;49.350;8.152;2022-11-20T10:19:23;997.3;;;11.17;64.01
54459;BME280;40368;49.350;8.152;2022-11-20T10:21:57;997.3;;;11.16;63.34
54459;BME280;40368;49.350;8.152;2022-11-20T10:23:19;997.2;;;11.14;63.42
54459;BME280;40368;49.350;8.152;2022-11-20T10:25:47;997.2;;;11.12;62.98
54459;BME280;40368;49.350;8.152;2022-11-20T10:28:16;997.1;;;11.12;63.4
54459;BME280;40368;49.350;8.152;2022-11-20T10:32:07;997.1;;;11.1;63.09
54459;BME280;40368;49.350;8.152;2022-11-20T10:35:32;997.1;;;11.13;62.27
54459;BME280;40368;49.350;8.152;2022-11-20T10:37:59;997.1;;;11.14;62.01
54459;BME280;40368;49.350;8.152;2022-11-20T10:41:41;997.1;;;11.08;61.8
54459;BME280;40368;49.350;8.152;2022-11-20T10:42:56;997.1;;;11.1;62.44
54459;BME280;40368;49.350;8.152;2022-11-20T10:45:36;997.1;;;11.14;62.14
54459;BME280;40368;49.350;8.152;2022-11-20T10:48:04;997.1;;;11.16;62.43
54459;BME280;40368;49.350;8.152;2022-11-20T10:51:46;997;;;11.17;62.06
54459;BME280;40368;49.350;8.152;2022-11-20T10:52:59;997;;;11.19;62.67
54459;BME280;40368;49.350;8.152;2022-11-20T10:55:27;997;;;11.27;62.7
54459;BME280;40368;49.350;8.152;2022-11-20T10:57:54;997;;;11.32;62.4
54459;BME280;40368;49.350;8.152;2022-11-20T11:01:39;997;;;11.42;62.54
54459;BME280;40368;49.350;8.152;2022-11-20T11:02:51;996.9;;;11.51;62.05
54459;BME280;40368;49.350;8.152;2022-11-20T11:05:29;996.8;;;11.62;61.79
54459;BME280;40368;49.350;8.152;2022-11-20T11:07:47;996.9;;;11.72;62.1
54459;BME280;40368;49.350;8.152;2022-11-20T11:15:28;996.8;;;12.27;60.08
54459;BME280;40368;49.350;8.152;2022-11-20T11:19:18;996.7;;;12.61;59.64
54459;BME280;40368;49.350;8.152;2022-11-20T11:23:10;996.7;;;12.94;57.47
54459;BME280;40368;49.350;8.152;2022-11-20T11:28:22;996.5;;;13.29;56.77
54459;BME280;40368;49.350;8.152;2022-11-20T11:33:27;996.6;;;13.62;56.24
54459;BME280;40368;49.350;8.152;2022-11-20T11:34:58;996.5;;;13.67;54.74
54459;BME280;40368;49.350;8.152;2022-11-20T11:37:11;996.5;;;13.84;54.44
54459;BME280;40368;49.350;8.152;2022-11-20T11:42:15;996.4;;;14.08;53.83
54459;BME280;40368;49.350;8.152;2022-11-20T11:47:11;996.3;;;14.26;52.33
54459;BME280;40368;49.350;8.152;2022-11-20T11:52:15;996.3;;;14.3;51.93
54459;BME280;40368;49.350;8.152;2022-11-20T11:57:14;996.3;;;14.29;52.34
54459;BME280;40368;49.350;8.152;2022-11-20T12:02:12;996.2;;;14.19;51.01
54459;BME280;40368;49.350;8.152;2022-11-20T12:07:14;996.1;;;13.96;51.66
54459;BME280;40368;49.350;8.152;2022-11-20T12:12:18;996.2;;;13.87;52.61
54459;BME280;40368;49.350;8.152;2022-11-20T12:16:09;996.2;;;13.88;52.85
54459;BME280;40368;49.350;8.152;2022-11-20T12:21:17;995.6;;;13.45;52.04
54459;BME280;40368;49.350;8.152;2022-11-20T12:26:11;996.2;;;13.68;51.71
54459;BME280;40368;49.350;8.152;2022-11-20T12:32:26;996.2;;;13.53;52.22
54459;BME280;40368;49.350;8.152;2022-11-20T12:34:52;996.1;;;13.5;52.48
54459;BME280;40368;49.350;8.152;2022-11-20T12:37:10;996.1;;;13.47;52.22
54459;BME280;40368;49.350;8.152;2022-11-20T12:43:19;996.2;;;13.29;52.15
54459;BME280;40368;49.350;8.152;2022-11-20T12:47:12;996.2;;;13.21;52.26
54459;BME280;40368;49.350;8.152;2022-11-20T12:52:11;996;;;13.08;50.35
54459;BME280;40368;49.350;8.152;2022-11-20T12:58:18;996.1;;;12.97;50.55
54459;BME280;40368;49.350;8.152;2022-11-20T13:02:18;996.1;;;12.88;48.82
54459;BME280;40368;49.350;8.152;2022-11-20T13:07:20;995.9;;;12.8;49.72
54459;BME280;40368;49.350;8.152;2022-11-20T13:12:28;996;;;12.82;49.4
54459;BME280;40368;49.350;8.152;2022-11-20T13:16:16;995.9;;;12.77;49
54459;BME280;40368;49.350;8.152;2022-11-20T13:26:25;995.9;;;12.75;47.81
54459;BME280;40368;49.350;8.152;2022-11-20T13:30:16;995.9;;;12.72;47.55
54459;BME280;40368;49.350;8.152;2022-11-20T13:35:25;995.8;;;12.74;47.53
54459;BME280;40368;49.350;8.152;2022-11-20T13:40:13;995.7;;;12.73;47.45
54459;BME280;40368;49.350;8.152;2022-11-20T13:45:22;995.7;;;12.76;47.64
54459;BME280;40368;49.350;8.152;2022-11-20T13:50:18;995.6;;;12.86;47.85
54459;BME280;40368;49.350;8.152;2022-11-20T13:55:16;995.6;;;13.13;48.39
54459;BME280;40368;49.350;8.152;2022-11-20T14:00:12;995.6;;;13.39;46.58
54459;BME280;40368;49.350;8.152;2022-11-20T14:05:11;995.5;;;13.47;45.95
54459;BME280;40368;49.350;8.152;2022-11-20T14:08:58;995.5;;;13.48;46.63
54459;BME280;40368;49.350;8.152;2022-11-20T14:12:41;995.5;;;13.46;46.49
54459;BME280;40368;49.350;8.152;2022-11-20T14:13:56;995.4;;;13.45;46.78
54459;BME280;40368;49.350;8.152;2022-11-20T14:16:32;995.4;;;13.41;46.56
54459;BME280;40368;49.350;8.152;2022-11-20T14:19:21;995.4;;;13.37;46.8
54459;BME280;40368;49.350;8.152;2022-11-20T14:22:47;995.3;;;13.31;46.85
54459;BME280;40368;49.350;8.152;2022-11-20T14:24:04;995.2;;;13.29;46.6
54459;BME280;40368;49.350;8.152;2022-11-20T14:26:24;995.3;;;13.25;46.65
54459;BME280;40368;49.350;8.152;2022-11-20T14:28:53;995.3;;;13.23;47.17
54459;BME280;40368;49.350;8.152;2022-11-20T14:32:35;995.3;;;13.18;46.9
54459;BME280;40368;49.350;8.152;2022-11-20T14:33:49;995.3;;;13.15;47.37
54459;BME280;40368;49.350;8.152;2022-11-20T14:37:17;995.3;;;13.04;47.8
54459;BME280;40368;49.350;8.152;2022-11-20T14:46:10;995.1;;;12.98;48.3
54459;BME280;40368;49.350;8.152;2022-11-20T14:55:14;995;;;13;49.77
54459;BME280;40368;49.350;8.152;2022-11-20T15:00:18;995.1;;;12.96;50.28
54459;BME280;40368;49.350;8.152;2022-11-20T15:05:07;995;;;12.89;50.51
54459;BME280;40368;49.350;8.152;2022-11-20T15:16:23;994.9;;;12.73;50.97
54459;BME280;40368;49.350;8.152;2022-11-20T15:18:51;994.9;;;12.68;51.06
54459;BME280;40368;49.350;8.152;2022-11-20T15:22:33;994.9;;;12.64;51.96
54459;BME280;40368;49.350;8.152;2022-11-20T15:23:47;995;;;12.63;51.59
54459;BME280;40368;49.350;8.152;2022-11-20T15:26:24;995;;;12.61;50.8
54459;BME280;40368;49.350;8.152;2022-11-20T15:28:52;995;;;12.57;52.39
54459;BME280;40368;49.350;8.152;2022-11-20T15:32:34;995;;;12.51;52.3
54459;BME280;40368;49.350;8.152;2022-11-20T15:33:49;995;;;12.5;52.17
54459;BME280;40368;49.350;8.152;2022-11-20T15:36:25;995;;;12.48;51.95
54459;BME280;40368;49.350;8.152;2022-11-20T15:38:53;994.9;;;12.43;52.79
54459;BME280;40368;49.350;8.152;2022-11-20T15:42:36;994.9;;;12.44;53.02
54459;BME280;40368;49.350;8.152;2022-11-20T15:43:50;994.9;;;12.45;52.98
54459;BME280;40368;49.350;8.152;2022-11-20T15:46:21;994.8;;;12.46;53.24
54459;BME280;40368;49.350;8.152;2022-11-20T15:49:44;994.7;;;12.44;53.21
54459;BME280;40368;49.350;8.152;2022-11-20T15:52:12;994.7;;;12.44;53.5
54459;BME280;40368;49.350;8.152;2022-11-20T15:54:40;994.7;;;12.4;53.54
54459;BME280;40368;49.350;8.152;2022-11-20T15:57:09;994.7;;;12.35;53.64
54459;BME280;40368;49.350;8.152;2022-11-20T16:02:14;994.6;;;12.29;53.5
54459;BME280;40368;49.350;8.152;2022-11-20T16:07:10;994.6;;;12.28;51.86
54459;BME280;40368;49.350;8.152;2022-11-20T16:13:30;994.5;;;12.19;51.46
54459;BME280;40368;49.350;8.152;2022-11-20T16:17:19;994.5;;;12.12;54.02
54459;BME280;40368;49.350;8.152;2022-11-20T16:22:16;994.5;;;12.14;54.1
54459;BME280;40368;49.350;8.152;2022-11-20T16:26:15;994.4;;;12.15;54.14
54459;BME280;40368;49.350;8.152;2022-11-20T16:31:12;994.4;;;12.18;53.56
54459;BME280;40368;49.350;8.152;2022-11-20T16:36:08;994.3;;;12.14;53.01
54459;BME280;40368;49.350;8.152;2022-11-20T16:42:19;994.3;;;12.16;53.06
54459;BME280;40368;49.350;8.152;2022-11-20T16:47:15;994.2;;;12.11;54.07
54459;BME280;40368;49.350;8.152;2022-11-20T16:53:26;994.2;;;12.13;54.59
54459;BME280;40368;49.350;8.152;2022-11-20T16:57:08;994.2;;;12.13;54.42
54459;BME280;40368;49.350;8.152;2022-11-20T17:03:27;994.2;;;12.09;54.81
54459;BME280;40368;49.350;8.152;2022-11-20T17:07:09;994.2;;;12.09;55.23
54459;BME280;40368;49.350;8.152;2022-11-20T17:13:20;994.1;;;12.07;55.06
54459;BME280;40368;49.350;8.152;2022-11-20T17:17:11;994;;;12.04;54.98
54459;BME280;40368;49.350;8.152;2022-11-20T17:19:39;994;;;12.03;55.29
54459;BME280;40368;49.350;8.152;2022-11-20T17:22:07;993.9;;;12.02;55.79
54459;BME280;40368;49.350;8.152;2022-11-20T17:26:00;993.9;;;12.01;55.99
54459;BME280;40368;49.350;8.152;2022-11-20T17:28:26;994;;;12.01;55.97
54459;BME280;40368;49.350;8.152;2022-11-20T17:32:08;993.9;;;12.01;56.05
54459;BME280;40368;49.350;8.152;2022-11-20T17:33:22;993.8;;;12;56.05
54459;BME280;40368;49.350;8.152;2022-11-20T17:37:13;993.8;;;12.02;56.54
54459;BME280;40368;49.350;8.152;2022-11-20T17:39:41;993.8;;;11.98;56.61
54459;BME280;40368;49.350;8.152;2022-11-20T17:42:10;993.7;;;11.98;56.65
54459;BME280;40368;49.350;8.152;2022-11-20T17:44:38;993.7;;;11.99;56.92
54459;BME280;40368;49.350;8.152;2022-11-20T17:47:06;993.7;;;11.96;56.85
54459;BME280;40368;49.350;8.152;2022-11-20T17:49:34;993.7;;;11.91;57.07
54459;BME280;40368;49.350;8.152;2022-11-20T17:52:03;993.6;;;11.92;56.94
54459;BME280;40368;49.350;8.152;2022-11-20T17:55:53;993.7;;;11.92;57.17
54459;BME280;40368;49.350;8.152;2022-11-20T17:56:59;993.7;;;11.92;57.41
54459;BME280;40368;49.350;8.152;2022-11-20T17:59:28;993.7;;;11.95;57.32
54459;BME280;40368;49.350;8.152;2022-11-20T18:02:04;993.7;;;11.94;57.47
54459;BME280;40368;49.350;8.152;2022-11-20T18:13:11;993.7;;;11.87;58.11
54459;BME280;40368;49.350;8.152;2022-11-20T18:16:55;993.6;;;11.87;58.19
54459;BME280;40368;49.350;8.152;2022-11-20T18:21:50;993.6;;;11.84;58.32
54459;BME280;40368;49.350;8.152;2022-11-20T18:24:18;993.6;;;11.84;58.43
54459;BME280;40368;49.350;8.152;2022-11-20T18:28:01;993.6;;;11.8;58.47
54459;BME280;40368;49.350;8.152;2022-11-20T18:31:43;993.5;;;11.77;58.55
54459;BME280;40368;49.350;8.152;2022-11-20T18:36:48;993.5;;;11.7;58.66
54459;BME280;40368;49.350;8.152;2022-11-20T18:41:53;993.4;;;11.53;59.48
54459;BME280;40368;49.350;8.152;2022-11-20T18:45:35;993.3;;;11.42;59.5
54459;BME280;40368;49.350;8.152;2022-11-20T18:49:17;993.2;;;11.39;59.96
54459;BME280;40368;49.350;8.152;2022-11-20T18:53:00;993.3;;;11.44;59.83
54459;BME280;40368;49.350;8.152;2022-11-20T18:56:42;993.1;;;11.47;59.56
54459;BME280;40368;49.350;8.152;2022-11-20T19:01:39;993.1;;;11.46;59.11
54459;BME280;40368;49.350;8.152;2022-11-20T19:04:07;993.1;;;11.43;59.25
54459;BME280;40368;49.350;8.152;2022-11-20T19:07:49;993.2;;;11.41;58.79
54459;BME280;40368;49.350;8.152;2022-11-20T19:12:46;993.2;;;11.4;58.7
54459;BME280;40368;49.350;8.152;2022-11-20T19:15:14;993;;;11.27;58.53
54459;BME280;40368;49.350;8.152;2022-11-20T19:18:58;993.2;;;11.21;58.75
54459;BME280;40368;49.350;8.152;2022-11-20T19:20:11;993.1;;;11.12;58.97
54459;BME280;40368;49.350;8.152;2022-11-20T19:22:48;993.2;;;11.12;59.16
54459;BME280;40368;49.350;8.152;2022-11-20T19:25:15;993.1;;;11.16;58.96
54459;BME280;40368;49.350;8.152;2022-11-20T19:27:44;993.2;;;11.12;58.77
54459;BME280;40368;49.350;8.152;2022-11-20T19:30:12;993.1;;;11.07;59.37
54459;BME280;40368;49.350;8.152;2022-11-20T19:32:40;993.1;;;11;59.35
54459;BME280;40368;49.350;8.152;2022-11-20T19:35:09;993.1;;;11.04;59.74
54459;BME280;40368;49.350;8.152;2022-11-20T19:38:35;993.2;;;11.04;59.27
54459;BME280;40368;49.350;8.152;2022-11-20T19:41:03;993.1;;;11.01;59.6
54459;BME280;40368;49.350;8.152;2022-11-20T19:42:17;993.1;;;11.11;59.72
54459;BME280;40368;49.350;8.152;2022-11-20T19:44:53;993.1;;;11.08;59.64
54459;BME280;40368;49.350;8.152;2022-11-20T19:47:22;993.1;;;11;59.61
54459;BME280;40368;49.350;8.152;2022-11-20T19:49:50;993.1;;;10.98;60.02
54459;BME280;40368;49.350;8.152;2022-11-20T19:53:41;993.1;;;11.05;59.68
54459;BME280;40368;49.350;8.152;2022-11-20T19:56:09;993.1;;;11.14;59.77
54459;BME280;40368;49.350;8.152;2022-11-20T19:58:37;993.1;;;11.17;59.84
54459;BME280;40368;49.350;8.152;2022-11-20T20:01:06;993;;;11.17;59.98
54459;BME280;40368;49.350;8.152;2022-11-20T20:03:34;993;;;11.18;59.7
54459;BME280;40368;49.350;8.152;2022-11-20T20:06:02;993;;;11.18;59.7
54459;BME280;40368;49.350;8.152;2022-11-20T20:08:30;992.9;;;11.22;59.87
54459;BME280;40368;49.350;8.152;2022-11-20T20:10:58;992.9;;;11.24;59.74
54459;BME280;40368;49.350;8.152;2022-11-20T20:12:13;992.3;;;10.93;59.59
54459;BME280;40368;49.350;8.152;2022-11-20T20:14:49;992.9;;;11.24;59.79
54459;BME280;40368;49.350;8.152;2022-11-20T20:17:17;993;;;11.26;59.55
54459;BME280;40368;49.350;8.152;2022-11-20T20:19:46;993.1;;;11.25;59.57
54459;BME280;40368;49.350;8.152;2022-11-20T20:22:14;993.1;;;11.27;59.67
54459;BME280;40368;49.350;8.152;2022-11-20T20:24:42;993.2;;;11.12;59.7
54459;BME280;40368;49.350;8.152;2022-11-20T20:27:10;993.2;;;11.08;59.34
54459;BME280;40368;49.350;8.152;2022-11-20T20:30:53;993.2;;;10.99;60.19
54459;BME280;40368;49.350;8.152;2022-11-20T20:32:07;993.1;;;11.11;59.95
54459;BME280;40368;49.350;8.152;2022-11-20T20:34:35;993.2;;;11.15;59.7
54459;BME280;40368;49.350;8.152;2022-11-20T20:37:03;993.1;;;11.15;59.33
54459;BME280;40368;49.350;8.152;2022-11-20T20:40:46;993.1;;;11.11;59.45
54459;BME280;40368;49.350;8.152;2022-11-20T20:42:00;992.9;;;11.07;59.68
54459;BME280;40368;49.350;8.152;2022-11-20T20:43:22;993.1;;;11.05;59.41
54459;BME280;40368;49.350;8.152;2022-11-20T20:48:27;993;;;11.1;59.28
54459;BME280;40368;49.350;8.152;2022-11-20T20:52:10;993.1;;;11.2;59.16
54459;BME280;40368;49.350;8.152;2022-11-20T21:03:25;993.2;;;11.01;59.91